createdAt,value
2022-11-24T00:01:22.514Z,9.80
2022-11-24T00:03:57.309Z,9.23
2022-11-24T00:06:27.922Z,9.07
2022-11-24T00:08:55.589Z,9.60
2022-11-24T00:11:25.770Z,8.85
2022-11-24T00:13:53.804Z,8.75
2022-11-24T00:16:26.695Z,9.73
2022-11-24T00:18:56.251Z,9.70
2022-11-24T00:21:27.464Z,9.32
2022-11-24T00:23:55.459Z,11.45
2022-11-24T00:26:25.206Z,9.60
2022-11-24T00:28:58.377Z,8.95
2022-11-24T00:31:33.727Z,9.30
2022-11-24T00:34:04.460Z,9.65
2022-11-24T00:36:33.693Z,8.90
2022-11-24T00:39:03.659Z,9.85
2022-11-24T00:41:31.700Z,9.63
2022-11-24T00:43:59.703Z,8.88
2022-11-24T00:46:28.037Z,9.82
2022-11-24T00:48:55.868Z,8.77
2022-11-24T00:51:27.135Z,9.57
2022-11-24T00:53:56.400Z,8.77
2022-11-24T00:56:25.038Z,8.50
2022-11-24T00:58:55.357Z,10.38
2022-11-24T01:01:31.081Z,8.73
2022-11-24T01:04:01.464Z,8.05
2022-11-24T01:06:29.885Z,7.90
2022-11-24T01:09:01.711Z,8.15
2022-11-24T01:14:18.549Z,8.43
2022-11-24T01:16:51.223Z,9.23
2022-11-24T01:19:21.518Z,7.45
2022-11-24T01:21:48.886Z,7.68
2022-11-24T01:24:21.078Z,7.95
2022-11-24T01:26:52.833Z,8.27
2022-11-24T01:31:47.273Z,5.50
2022-11-24T01:34:14.653Z,6.30
2022-11-24T01:36:41.998Z,5.15
2022-11-24T01:39:11.709Z,3.95
2022-11-24T01:41:39.136Z,5.30
2022-11-24T01:44:23.482Z,5.03
2022-11-24T01:46:57.690Z,4.22
2022-11-24T01:49:35.778Z,7.32
2022-11-24T01:52:10.546Z,3.83
2022-11-24T01:54:47.081Z,3.03
2022-11-24T01:57:23.754Z,3.28
2022-11-24T01:59:56.303Z,2.90
2022-11-24T02:02:24.194Z,2.83
2022-11-24T02:04:54.412Z,3.58
2022-11-24T02:07:21.876Z,3.25
2022-11-24T02:09:57.941Z,3.17
2022-11-24T02:12:27.127Z,2.33
2022-11-24T02:14:56.019Z,3.60
2022-11-24T02:17:23.460Z,2.55
2022-11-24T02:20:04.343Z,2.30
2022-11-24T02:23:02.169Z,3.00
2022-11-24T02:25:58.954Z,3.05
2022-11-24T02:28:28.386Z,7.97
2022-11-24T02:30:55.983Z,5.47
2022-11-24T02:33:26.354Z,6.38
2022-11-24T02:35:53.763Z,9.63
2022-11-24T02:38:33.201Z,3.60
2022-11-24T02:41:08.834Z,3.42
2022-11-24T02:43:43.553Z,2.30
2022-11-24T02:46:13.080Z,1.73
2022-11-24T02:48:40.426Z,2.80
2022-11-24T02:51:07.899Z,2.40
2022-11-24T02:53:35.479Z,2.00
2022-11-24T02:56:02.831Z,1.95
2022-11-24T02:58:30.183Z,1.80
2022-11-24T03:00:58.054Z,2.78
2022-11-24T03:03:25.735Z,2.67
2022-11-24T03:05:53.104Z,2.33
2022-11-24T03:08:20.456Z,2.30
2022-11-24T03:10:47.970Z,2.88
2022-11-24T03:13:15.543Z,3.25
2022-11-24T03:15:42.973Z,1.80
2022-11-24T03:18:10.362Z,1.80
2022-11-24T03:20:37.729Z,2.05
2022-11-24T03:23:05.231Z,2.08
2022-11-24T03:25:32.570Z,1.80
2022-11-24T03:27:59.908Z,1.88
2022-11-24T03:30:27.424Z,2.10
2022-11-24T03:32:56.955Z,2.15
2022-11-24T03:35:24.434Z,2.22
2022-11-24T03:37:51.845Z,2.90
2022-11-24T03:40:21.374Z,2.05
2022-11-24T03:42:48.723Z,2.35
2022-11-24T03:45:44.152Z,2.20
2022-11-24T03:48:03.538Z,3.47
2022-11-24T03:50:30.871Z,4.30
2022-11-24T03:52:58.283Z,2.58
2022-11-24T03:55:25.581Z,3.95
2022-11-24T03:57:55.216Z,4.05
2022-11-24T04:00:22.673Z,4.47
2022-11-24T04:02:50.202Z,4.07
2022-11-24T04:05:17.621Z,4.53
2022-11-24T04:07:47.237Z,2.88
2022-11-24T04:10:14.656Z,4.13
2022-11-24T04:12:44.979Z,4.85
2022-11-24T04:15:15.428Z,3.35
2022-11-24T04:17:43.282Z,7.40
2022-11-24T04:20:11.680Z,4.00
2022-11-24T04:22:42.056Z,5.82
2022-11-24T04:25:10.737Z,6.40
2022-11-24T04:27:38.997Z,6.30
2022-11-24T04:30:07.464Z,6.22
2022-11-24T04:32:35.007Z,4.88
2022-11-24T04:35:02.536Z,3.10
2022-11-24T04:37:29.865Z,5.28
2022-11-24T04:39:57.100Z,5.10
2022-11-24T04:42:24.369Z,4.85
2022-11-24T04:44:54.495Z,6.78
2022-11-24T04:47:25.157Z,7.28
2022-11-24T04:49:53.235Z,5.35
2022-11-24T04:52:22.914Z,6.93
2022-11-24T04:54:50.279Z,4.93
2022-11-24T04:57:21.931Z,5.68
2022-11-24T04:59:50.573Z,4.68
2022-11-24T05:02:21.050Z,6.43
2022-11-24T05:04:48.440Z,5.78
2022-11-24T05:07:18.992Z,3.47
2022-11-24T05:10:08.573Z,6.65
2022-11-24T05:12:35.879Z,5.90
2022-11-24T05:15:07.478Z,5.50
2022-11-24T05:17:37.365Z,4.88
2022-11-24T05:20:06.500Z,4.95
2022-11-24T05:22:36.182Z,3.05
2022-11-24T05:25:03.690Z,9.43
2022-11-24T05:27:33.398Z,6.38
2022-11-24T05:30:01.134Z,4.70
2022-11-24T05:32:28.381Z,5.43
2022-11-24T05:34:56.758Z,3.55
2022-11-24T05:37:25.659Z,6.47
2022-11-24T05:39:54.565Z,5.05
2022-11-24T05:42:46.186Z,3.35
2022-11-24T05:45:17.878Z,3.95
2022-11-24T05:47:48.467Z,4.65
2022-11-24T05:50:18.319Z,5.35
2022-11-24T05:52:48.093Z,3.95
2022-11-24T05:55:19.466Z,3.10
2022-11-24T05:57:46.822Z,6.10
2022-11-24T06:00:15.158Z,2.65
2022-11-24T06:02:42.448Z,3.53
2022-11-24T06:05:09.828Z,3.58
2022-11-24T06:07:37.325Z,4.95
2022-11-24T06:10:05.566Z,4.25
2022-11-24T06:12:33.154Z,5.70
2022-11-24T06:15:00.403Z,3.00
2022-11-24T06:17:27.948Z,5.38
2022-11-24T06:19:55.275Z,3.92
2022-11-24T06:22:22.659Z,6.68
2022-11-24T06:24:51.141Z,5.32
2022-11-24T06:27:19.365Z,4.63
2022-11-24T06:29:46.672Z,7.05
2022-11-24T06:32:14.078Z,3.28
2022-11-24T06:34:42.076Z,5.47
2022-11-24T06:37:09.892Z,5.20
2022-11-24T06:39:37.419Z,8.15
2022-11-24T06:42:04.806Z,4.65
2022-11-24T06:44:34.785Z,4.43
2022-11-24T06:47:04.820Z,5.22
2022-11-24T06:49:32.127Z,10.82
2022-11-24T06:52:01.977Z,9.60
2022-11-24T06:54:29.394Z,5.22
2022-11-24T06:57:02.746Z,6.85
2022-11-24T06:59:30.095Z,4.05
2022-11-24T07:01:57.527Z,4.85
2022-11-24T07:04:25.058Z,4.60
2022-11-24T07:06:52.462Z,6.97
2022-11-24T07:09:19.884Z,6.15
2022-11-24T07:11:47.372Z,6.60
2022-11-24T07:14:14.747Z,4.85
2022-11-24T07:16:42.691Z,6.78
2022-11-24T07:19:10.812Z,4.60
2022-11-24T07:21:38.239Z,3.83
2022-11-24T07:24:05.862Z,4.65
2022-11-24T07:26:37.272Z,4.55
2022-11-24T07:29:05.491Z,6.10
2022-11-24T07:31:32.851Z,6.32
2022-11-24T07:34:03.097Z,5.25
2022-11-24T07:36:30.378Z,4.72
2022-11-24T07:38:57.778Z,4.78
2022-11-24T07:41:25.111Z,5.18
2022-11-24T07:43:53.098Z,3.08
2022-11-24T07:46:20.910Z,4.25
2022-11-24T07:48:48.406Z,4.85
2022-11-24T07:51:16.177Z,5.07
2022-11-24T07:53:45.932Z,5.53
2022-11-24T07:56:13.376Z,4.25
2022-11-24T07:58:40.634Z,5.20
2022-11-24T08:01:12.870Z,4.47
2022-11-24T08:03:43.169Z,4.43
2022-11-24T08:06:31.723Z,5.63
2022-11-24T08:08:58.903Z,3.90
2022-11-24T08:11:27.176Z,3.92
2022-11-24T08:13:54.506Z,4.18
2022-11-24T08:16:21.837Z,4.90
2022-11-24T08:18:51.216Z,5.28
2022-11-24T08:21:19.022Z,4.70
2022-11-24T08:23:48.715Z,2.92
2022-11-24T08:26:19.032Z,5.72
2022-11-24T08:28:47.482Z,6.70
2022-11-24T08:31:18.781Z,5.15
2022-11-24T08:33:48.980Z,5.70
2022-11-24T08:36:21.072Z,3.83
2022-11-24T08:38:49.763Z,5.10
2022-11-24T08:41:19.290Z,4.90
2022-11-24T08:43:46.577Z,5.20
2022-11-24T08:46:19.011Z,5.13
2022-11-24T08:48:56.314Z,5.40
2022-11-24T08:51:31.505Z,6.43
2022-11-24T08:54:00.990Z,7.47
2022-11-24T08:56:30.127Z,5.60
2022-11-24T08:58:58.135Z,7.68
2022-11-24T09:01:26.173Z,5.32
2022-11-24T09:03:53.809Z,7.20
2022-11-24T09:06:26.581Z,5.13
2022-11-24T09:08:55.485Z,4.15
2022-11-24T09:11:24.352Z,6.32
2022-11-24T09:13:54.982Z,6.60
2022-11-24T09:16:26.008Z,5.43
2022-11-24T09:19:01.617Z,6.43
2022-11-24T09:21:30.063Z,4.28
2022-11-24T09:23:57.562Z,6.03
2022-11-24T09:26:27.846Z,5.28
2022-11-24T09:28:56.718Z,6.13
2022-11-24T09:31:26.735Z,7.68
2022-11-24T09:33:54.828Z,4.47
2022-11-24T09:36:23.236Z,3.47
2022-11-24T09:38:52.700Z,7.60
2022-11-24T09:41:56.296Z,3.38
2022-11-24T09:44:29.626Z,5.00
2022-11-24T09:47:23.668Z,7.35
2022-11-24T09:50:02.252Z,3.88
2022-11-24T09:52:40.470Z,3.97
2022-11-24T09:55:28.198Z,5.10
2022-11-24T09:58:08.013Z,7.40
2022-11-24T10:00:36.542Z,10.45
2022-11-24T10:03:04.539Z,5.68
2022-11-24T10:05:34.600Z,3.55
2022-11-24T10:08:17.148Z,12.65
2022-11-24T10:10:59.768Z,10.80
2022-11-24T10:13:46.025Z,34.15
2022-11-24T10:16:59.511Z,18.08
2022-11-24T10:19:46.054Z,10.68
2022-11-24T10:22:49.083Z,39.47
2022-11-24T10:25:33.408Z,16.58
2022-11-24T10:28:04.998Z,9.75
2022-11-24T10:30:32.343Z,8.98
2022-11-24T10:33:28.752Z,7.90
2022-11-24T10:36:09.433Z,9.43
2022-11-24T10:38:51.666Z,4.60
2022-11-24T10:41:45.118Z,9.25
2022-11-24T10:44:15.644Z,10.73
2022-11-24T10:46:43.725Z,8.65
2022-11-24T10:49:24.873Z,6.93
2022-11-24T10:52:12.466Z,9.50
2022-11-24T10:54:56.098Z,9.25
2022-11-24T10:57:33.089Z,6.97
2022-11-24T11:00:02.022Z,6.53
2022-11-24T11:02:33.827Z,9.88
2022-11-24T11:05:27.334Z,9.65
2022-11-24T11:08:10.078Z,8.95
2022-11-24T11:10:37.396Z,5.72
2022-11-24T11:13:28.387Z,7.70
2022-11-24T11:15:57.222Z,9.52
2022-11-24T11:18:35.215Z,9.75
2022-11-24T11:21:03.691Z,7.28
2022-11-24T11:23:34.487Z,6.50
2022-11-24T11:26:22.110Z,8.70
2022-11-24T11:35:12.822Z,5.40
2022-11-24T11:37:43.783Z,7.55
2022-11-24T11:40:18.043Z,7.15
2022-11-24T11:43:04.717Z,6.93
2022-11-24T11:45:43.157Z,6.50
2022-11-24T11:48:21.416Z,4.90
2022-11-24T11:53:47.261Z,6.35
2022-11-24T11:56:28.590Z,7.97
2022-11-24T11:59:13.784Z,9.57
2022-11-24T12:02:18.514Z,5.95
2022-11-24T12:05:24.808Z,7.07
2022-11-24T12:08:13.404Z,4.53
2022-11-24T12:11:07.778Z,7.50
2022-11-24T12:14:01.456Z,7.18
2022-11-24T12:16:46.582Z,8.40
2022-11-24T12:19:29.862Z,9.05
2022-11-24T12:22:18.638Z,7.15
2022-11-24T12:25:05.251Z,8.38
2022-11-24T12:27:32.459Z,9.07
2022-11-24T12:30:12.710Z,6.55
2022-11-24T12:33:04.988Z,6.78
2022-11-24T12:38:47.563Z,7.38
2022-11-24T12:41:45.763Z,12.82
2022-11-24T12:44:42.577Z,12.32
2022-11-24T12:47:12.721Z,8.00
2022-11-24T12:49:46.243Z,8.15
2022-11-24T12:52:24.443Z,9.98
2022-11-24T12:54:54.098Z,4.78
2022-11-24T12:57:36.608Z,10.77
2022-11-24T13:00:09.619Z,10.90
2022-11-24T13:03:12.081Z,7.80
2022-11-24T13:05:48.658Z,7.40
2022-11-24T13:08:18.319Z,7.45
2022-11-24T13:10:57.398Z,9.15
2022-11-24T13:13:48.202Z,5.10
2022-11-24T13:19:19.565Z,5.88
2022-11-24T13:21:53.400Z,7.20
2022-11-24T13:24:26.853Z,7.50
2022-11-24T13:27:15.514Z,5.70
2022-11-24T13:29:49.286Z,9.30
2022-11-24T13:32:19.758Z,10.13
2022-11-24T13:34:49.946Z,5.00
2022-11-24T13:37:26.607Z,7.53
2022-11-24T13:40:22.611Z,10.02
2022-11-24T13:43:01.405Z,7.40
2022-11-24T13:45:41.566Z,9.98
2022-11-24T13:48:21.963Z,7.32
2022-11-24T13:50:50.221Z,9.10
2022-11-24T13:53:38.528Z,6.22
2022-11-24T13:56:11.819Z,6.05
2022-11-24T13:58:42.002Z,9.57
2022-11-24T14:01:12.510Z,7.95
2022-11-24T14:06:48.086Z,2.75
2022-11-24T14:09:27.829Z,2.05
2022-11-24T14:12:20.391Z,2.10
2022-11-24T14:14:49.778Z,2.17
2022-11-24T14:17:23.071Z,1.35
2022-11-24T14:19:55.108Z,2.35
2022-11-24T14:24:57.143Z,1.30
2022-11-24T14:27:34.294Z,1.88
2022-11-24T14:30:10.425Z,1.77
2022-11-24T14:32:37.940Z,1.75
2022-11-24T14:35:25.346Z,2.03
2022-11-24T14:37:52.871Z,1.88
2022-11-24T14:40:40.030Z,2.83
2022-11-24T14:43:21.703Z,5.20
2022-11-24T14:46:05.974Z,2.83
2022-11-24T14:48:48.581Z,3.30
2022-11-24T14:51:23.040Z,7.60
2022-11-24T14:53:58.371Z,4.00
2022-11-24T14:56:28.797Z,1.63
2022-11-24T14:59:00.061Z,2.08
2022-11-24T15:01:27.446Z,3.05
2022-11-24T15:04:54.207Z,4.55
2022-11-24T15:07:29.657Z,3.25
2022-11-24T15:09:59.924Z,3.78
2022-11-24T15:12:34.825Z,2.20
2022-11-24T15:15:07.794Z,3.17
2022-11-24T15:17:35.142Z,3.67
2022-11-24T15:20:16.501Z,2.95
2022-11-24T15:22:46.702Z,2.50
2022-11-24T15:25:33.551Z,2.17
2022-11-24T15:28:01.290Z,2.72
2022-11-24T15:30:29.357Z,2.97
2022-11-24T15:32:57.846Z,2.92
2022-11-24T15:35:31.703Z,2.97
2022-11-24T15:37:59.334Z,3.88
2022-11-24T15:40:26.641Z,3.75
2022-11-24T15:42:59.596Z,3.38
2022-11-24T15:45:30.798Z,3.95
2022-11-24T15:47:58.054Z,4.25
2022-11-24T15:50:27.694Z,3.42
2022-11-24T15:52:57.275Z,5.32
2022-11-24T15:55:24.586Z,5.00
2022-11-24T15:57:51.818Z,3.08
2022-11-24T16:00:21.762Z,3.97
2022-11-24T16:02:49.391Z,2.25
2022-11-24T16:05:17.856Z,2.13
2022-11-24T16:07:45.196Z,1.48
2022-11-24T16:10:24.437Z,1.60
2022-11-24T16:12:53.922Z,1.98
2022-11-24T16:15:21.199Z,1.77
2022-11-24T16:17:48.551Z,1.85
2022-11-24T16:20:19.125Z,3.30
2022-11-24T16:22:48.668Z,5.53
2022-11-24T16:25:15.977Z,4.38
2022-11-24T16:27:43.355Z,3.25
2022-11-24T16:30:15.023Z,3.05
2022-11-24T16:32:42.416Z,2.95
2022-11-24T16:35:09.847Z,2.58
2022-11-24T16:37:37.171Z,2.83
2022-11-24T16:40:05.179Z,3.03
2022-11-24T16:42:37.401Z,2.45
2022-11-24T16:45:04.959Z,3.97
2022-11-24T16:47:32.231Z,2.60
2022-11-24T16:49:59.543Z,4.18
2022-11-24T16:52:26.839Z,2.83
2022-11-24T16:54:56.242Z,3.03
2022-11-24T16:57:23.627Z,3.72
2022-11-24T16:59:50.918Z,3.08
2022-11-24T17:02:18.944Z,6.25
2022-11-24T17:04:46.441Z,4.28
2022-11-24T17:07:15.448Z,5.20
2022-11-24T17:09:45.454Z,3.55
2022-11-24T17:12:12.736Z,7.70
2022-11-24T17:14:40.030Z,4.05
2022-11-24T17:17:07.305Z,4.22
2022-11-24T17:19:34.812Z,7.00
2022-11-24T17:22:02.182Z,4.70
2022-11-24T17:24:31.769Z,3.47
2022-11-24T17:26:59.293Z,4.50
2022-11-24T17:29:30.102Z,4.13
2022-11-24T17:31:57.606Z,4.23
2022-11-24T17:34:24.998Z,4.60
2022-11-24T17:36:52.338Z,3.97
2022-11-24T17:39:23.367Z,4.97
2022-11-24T17:41:52.110Z,3.83
2022-11-24T17:44:21.747Z,3.58
2022-11-24T17:46:49.055Z,3.25
2022-11-24T17:49:16.382Z,4.30
2022-11-24T17:51:46.165Z,3.53
2022-11-24T17:57:00.969Z,4.45
2022-11-24T17:59:28.341Z,4.97
2022-11-24T18:01:57.901Z,4.32
2022-11-24T18:04:25.178Z,3.75
2022-11-24T18:06:52.457Z,3.70
2022-11-24T18:09:19.740Z,2.50
2022-11-24T18:11:47.878Z,3.65
2022-11-24T18:14:15.236Z,3.97
2022-11-24T18:16:44.763Z,4.45
2022-11-24T18:19:14.527Z,6.78
2022-11-24T18:21:46.107Z,6.22
2022-11-24T18:24:13.980Z,7.00
2022-11-24T18:26:42.198Z,3.95
2022-11-24T18:29:11.366Z,4.35
2022-11-24T18:31:43.447Z,4.55
2022-11-24T18:34:10.778Z,4.22
2022-11-24T18:36:38.103Z,5.07
2022-11-24T18:39:07.567Z,3.42
2022-11-24T18:41:42.107Z,4.45
2022-11-24T18:44:14.076Z,5.05
2022-11-24T18:46:41.364Z,4.10
2022-11-24T18:49:08.706Z,2.70
2022-11-24T18:51:36.073Z,3.20
2022-11-24T18:54:05.290Z,3.08
2022-11-24T18:56:34.983Z,5.63
2022-11-24T18:59:04.687Z,5.55
2022-11-24T19:01:32.426Z,3.65
2022-11-24T19:04:02.955Z,6.55
2022-11-24T19:06:35.084Z,8.30
2022-11-24T19:09:05.270Z,3.67
2022-11-24T19:11:35.635Z,3.92
2022-11-24T19:14:07.392Z,3.80
2022-11-24T19:19:03.046Z,3.53
2022-11-24T19:21:32.196Z,2.70
2022-11-24T19:24:04.499Z,3.63
2022-11-24T19:26:35.160Z,2.42
2022-11-24T19:29:03.247Z,3.35
2022-11-24T19:31:30.781Z,2.28
2022-11-24T19:33:59.739Z,2.65
2022-11-24T19:36:27.195Z,2.53
2022-11-24T19:38:58.975Z,2.78
2022-11-24T19:43:58.488Z,2.97
2022-11-24T19:46:29.384Z,2.92
2022-11-24T19:49:01.604Z,3.75
2022-11-24T19:51:31.710Z,4.60
2022-11-24T19:54:00.266Z,3.85
2022-11-24T19:56:30.501Z,3.95
2022-11-24T19:59:00.678Z,4.43
2022-11-24T20:01:30.507Z,3.33
2022-11-24T20:04:03.600Z,3.53
2022-11-24T20:06:36.958Z,3.50
2022-11-24T20:09:06.717Z,4.22
2022-11-24T20:11:34.396Z,4.43
2022-11-24T20:14:02.059Z,4.00
2022-11-24T20:16:33.652Z,5.35
2022-11-24T20:19:06.490Z,5.18
2022-11-24T20:21:35.283Z,3.53
2022-11-24T20:24:07.247Z,11.07
2022-11-24T20:26:37.922Z,10.98
2022-11-24T20:29:06.444Z,7.82
2022-11-24T20:31:38.459Z,4.38
2022-11-24T20:34:07.121Z,4.28
2022-11-24T20:36:37.036Z,8.75
2022-11-24T20:39:10.096Z,6.45
2022-11-24T20:41:39.627Z,2.95
2022-11-24T20:44:10.520Z,3.22
2022-11-24T20:46:40.590Z,3.40
2022-11-24T20:49:11.134Z,5.75
2022-11-24T20:51:42.117Z,2.75
2022-11-24T20:54:12.911Z,2.60
2022-11-24T20:56:42.263Z,3.87
2022-11-24T20:59:16.314Z,3.40
2022-11-24T21:01:45.860Z,4.03
2022-11-24T21:04:17.323Z,3.83
2022-11-24T21:06:44.788Z,3.40
2022-11-24T21:09:14.494Z,4.97
2022-11-24T21:11:44.693Z,5.22
2022-11-24T21:14:12.244Z,4.47
2022-11-24T21:16:40.917Z,4.53
2022-11-24T21:19:11.822Z,4.20
2022-11-24T21:21:41.007Z,6.20
2022-11-24T21:24:21.700Z,5.40
2022-11-24T21:26:51.686Z,4.47
2022-11-24T21:29:22.154Z,3.72
2022-11-24T21:31:52.253Z,3.75
2022-11-24T21:34:22.139Z,5.35
2022-11-24T21:36:49.932Z,3.55
2022-11-24T21:39:17.627Z,2.97
2022-11-24T21:41:44.997Z,5.85
2022-11-24T21:44:13.456Z,3.33
2022-11-24T21:46:46.191Z,7.05
2022-11-24T21:49:18.422Z,5.03
2022-11-24T21:51:45.757Z,4.72
2022-11-24T21:54:15.376Z,4.60
2022-11-24T21:56:42.765Z,3.17
2022-11-24T21:59:10.153Z,8.07
2022-11-24T22:01:37.439Z,4.72
2022-11-24T22:04:05.030Z,4.32
2022-11-24T22:06:34.938Z,4.35
2022-11-24T22:09:02.222Z,4.78
2022-11-24T22:11:32.466Z,3.85
2022-11-24T22:13:59.768Z,5.75
2022-11-24T22:16:27.097Z,5.32
2022-11-24T22:18:54.475Z,4.78
2022-11-24T22:21:24.215Z,4.60
2022-11-24T22:23:52.749Z,4.25
2022-11-24T22:26:22.120Z,5.72
2022-11-24T22:28:49.886Z,4.85
2022-11-24T22:31:22.305Z,4.90
2022-11-24T22:33:53.056Z,2.78
2022-11-24T22:36:22.866Z,4.15
2022-11-24T22:38:54.847Z,4.47
2022-11-24T22:41:22.477Z,4.05
2022-11-24T22:43:50.503Z,3.95
2022-11-24T22:46:20.008Z,5.00
2022-11-24T22:48:48.738Z,4.20
2022-11-24T22:51:21.962Z,4.05
2022-11-24T22:53:59.273Z,3.88
2022-11-24T22:56:32.155Z,7.10
2022-11-24T22:59:00.932Z,5.20
2022-11-24T23:01:29.642Z,4.60
2022-11-24T23:03:57.344Z,4.70
2022-11-24T23:06:32.502Z,4.57
2022-11-24T23:09:01.503Z,4.22
2022-11-24T23:11:37.758Z,3.75
2022-11-24T23:14:08.273Z,4.95
2022-11-24T23:16:35.813Z,4.40
2022-11-24T23:19:03.730Z,4.25
2022-11-24T23:21:33.208Z,3.05
2022-11-24T23:24:02.041Z,5.05
2022-11-24T23:26:35.213Z,6.45
2022-11-24T23:29:03.681Z,5.75
2022-11-24T23:31:31.507Z,7.50
2022-11-24T23:34:00.643Z,5.82
2022-11-24T23:36:28.890Z,5.07
2022-11-24T23:38:57.003Z,6.20
2022-11-24T23:41:28.557Z,6.15
2022-11-24T23:43:58.525Z,6.40
2022-11-24T23:46:27.369Z,5.78
2022-11-24T23:48:55.502Z,5.60
2022-11-24T23:51:31.297Z,6.18
2022-11-24T23:53:59.740Z,7.15
2022-11-24T23:56:32.343Z,7.15
2022-11-24T23:59:01.184Z,6.15
